createdAt,value
2018-07-02T00:01:23.948Z,17.10
2018-07-02T00:03:27.055Z,17.00
2018-07-02T00:05:41.479Z,17.00
2018-07-02T00:07:44.569Z,17.00
2018-07-02T00:09:48.179Z,17.00
2018-07-02T00:11:51.348Z,16.90
2018-07-02T00:13:54.576Z,16.90
2018-07-02T00:15:57.643Z,16.90
2018-07-02T00:18:00.745Z,16.90
2018-07-02T00:20:04.579Z,16.80
2018-07-02T00:22:07.673Z,16.80
2018-07-02T00:24:10.751Z,16.80
2018-07-02T00:26:13.956Z,16.80
2018-07-02T00:28:17.056Z,16.70
2018-07-02T00:30:20.140Z,16.70
2018-07-02T00:32:23.208Z,16.60
2018-07-02T00:34:26.332Z,16.60
2018-07-02T00:36:29.611Z,16.60
2018-07-02T00:38:32.696Z,16.50
2018-07-02T00:40:35.783Z,16.50
2018-07-02T00:42:38.954Z,16.50
2018-07-02T00:44:42.040Z,16.50
2018-07-02T00:46:45.139Z,16.50
2018-07-02T00:48:48.219Z,16.40
2018-07-02T00:50:51.327Z,16.40
2018-07-02T00:52:54.399Z,16.30
2018-07-02T00:54:57.695Z,16.30
2018-07-02T00:57:00.780Z,16.30
2018-07-02T00:59:03.923Z,16.30
2018-07-02T01:01:07.028Z,16.30
2018-07-02T01:03:10.112Z,16.30
2018-07-02T01:05:13.412Z,16.30
2018-07-02T01:07:16.496Z,16.30
2018-07-02T01:09:19.589Z,16.30
2018-07-02T01:11:22.675Z,16.30
2018-07-02T01:13:25.761Z,16.30
2018-07-02T01:15:28.840Z,16.20
2018-07-02T01:17:31.975Z,16.20
2018-07-02T01:19:35.706Z,16.20
2018-07-02T01:21:38.795Z,16.20
2018-07-02T01:23:42.272Z,16.20
2018-07-02T01:25:45.392Z,16.20
2018-07-02T01:27:48.493Z,16.10
2018-07-02T01:29:51.628Z,16.10
2018-07-02T01:31:54.692Z,16.10
2018-07-02T01:33:57.775Z,16.10
2018-07-02T01:36:01.329Z,16.00
2018-07-02T01:38:04.547Z,16.00
2018-07-02T01:40:07.623Z,15.90
2018-07-02T01:42:10.723Z,15.90
2018-07-02T01:44:13.828Z,15.80
2018-07-02T01:46:16.920Z,15.80
2018-07-02T01:48:20.011Z,15.70
2018-07-02T01:50:23.117Z,15.70
2018-07-02T01:52:26.195Z,15.70
2018-07-02T01:54:29.341Z,15.60
2018-07-02T01:56:32.447Z,15.50
2018-07-02T01:58:35.539Z,15.50
2018-07-02T02:00:38.640Z,15.50
2018-07-02T02:02:41.736Z,15.40
2018-07-02T02:04:44.819Z,15.30
2018-07-02T02:06:47.920Z,15.30
2018-07-02T02:08:51.076Z,15.30
2018-07-02T02:10:54.211Z,15.30
2018-07-02T02:12:57.332Z,15.20
2018-07-02T02:15:00.439Z,15.20
2018-07-02T02:17:03.544Z,15.20
2018-07-02T02:19:07.123Z,15.10
2018-07-02T02:21:10.299Z,15.10
2018-07-02T02:23:13.405Z,15.10
2018-07-02T02:25:16.504Z,15.00
2018-07-02T02:27:19.763Z,15.00
2018-07-02T02:29:22.863Z,15.00
2018-07-02T02:31:26.024Z,14.90
2018-07-02T02:33:29.121Z,14.90
2018-07-02T02:35:32.216Z,14.90
2018-07-02T02:37:35.361Z,14.90
2018-07-02T02:39:38.460Z,14.90
2018-07-02T02:41:41.562Z,14.80
2018-07-02T02:43:44.660Z,14.80
2018-07-02T02:45:47.745Z,14.80
2018-07-02T02:47:50.849Z,14.70
2018-07-02T02:49:53.962Z,14.70
2018-07-02T02:51:57.087Z,14.70
2018-07-02T02:54:00.189Z,14.60
2018-07-02T02:56:03.352Z,14.60
2018-07-02T02:58:06.662Z,14.60
2018-07-02T03:00:09.751Z,14.50
2018-07-02T03:02:12.848Z,14.50
2018-07-02T03:04:15.977Z,14.50
2018-07-02T03:06:19.359Z,14.50
2018-07-02T03:08:22.499Z,14.50
2018-07-02T03:10:25.589Z,14.40
2018-07-02T03:12:28.705Z,14.40
2018-07-02T03:14:32.044Z,14.40
2018-07-02T03:16:35.160Z,14.40
2018-07-02T03:18:38.260Z,14.40
2018-07-02T03:20:41.405Z,14.40
2018-07-02T03:22:44.516Z,14.40
2018-07-02T03:24:47.621Z,14.30
2018-07-02T03:26:50.727Z,14.30
2018-07-02T03:28:53.839Z,14.30
2018-07-02T03:30:56.927Z,14.30
2018-07-02T03:33:00.335Z,14.30
2018-07-02T03:35:03.497Z,14.30
2018-07-02T03:37:06.535Z,14.20
2018-07-02T03:39:10.817Z,14.20
2018-07-02T03:41:13.932Z,14.20
2018-07-02T03:43:17.072Z,14.30
2018-07-02T03:45:20.255Z,14.30
2018-07-02T03:47:23.343Z,14.30
2018-07-02T03:49:26.485Z,14.30
2018-07-02T03:51:29.584Z,14.30
2018-07-02T03:53:32.696Z,14.30
2018-07-02T03:55:35.776Z,14.30
2018-07-02T03:57:38.864Z,14.30
2018-07-02T03:59:41.956Z,14.40
2018-07-02T04:01:45.034Z,14.40
2018-07-02T04:03:48.137Z,14.40
2018-07-02T04:05:51.259Z,14.40
2018-07-02T04:07:54.512Z,14.40
2018-07-02T04:09:57.595Z,14.50
2018-07-02T04:12:00.732Z,14.50
2018-07-02T04:14:03.775Z,14.50
2018-07-02T04:16:06.864Z,14.50
2018-07-02T04:18:09.950Z,14.50
2018-07-02T04:20:13.096Z,14.50
2018-07-02T04:22:16.192Z,14.60
2018-07-02T04:24:19.373Z,14.60
2018-07-02T04:26:22.450Z,14.60
2018-07-02T04:28:25.552Z,14.60
2018-07-02T04:30:28.756Z,14.70
2018-07-02T04:32:31.842Z,14.80
2018-07-02T04:34:34.938Z,14.80
2018-07-02T04:36:38.067Z,14.90
2018-07-02T04:38:41.181Z,14.90
2018-07-02T04:40:45.359Z,15.00
2018-07-02T04:42:48.433Z,15.10
2018-07-02T04:44:51.528Z,15.10
2018-07-02T04:46:54.629Z,15.20
2018-07-02T04:48:57.727Z,15.30
2018-07-02T04:51:00.968Z,15.30
2018-07-02T04:53:04.013Z,15.40
2018-07-02T04:55:07.314Z,15.50
2018-07-02T04:57:10.423Z,15.50
2018-07-02T04:59:13.529Z,15.60
2018-07-02T05:01:16.632Z,15.70
2018-07-02T05:03:19.719Z,16.00
2018-07-02T05:05:22.889Z,16.80
2018-07-02T05:07:26.520Z,17.90
2018-07-02T05:09:29.808Z,19.00
2018-07-02T05:11:32.918Z,20.00
2018-07-02T05:13:36.076Z,21.00
2018-07-02T05:15:39.163Z,21.90
2018-07-02T05:17:42.273Z,22.60
2018-07-02T05:19:45.367Z,23.40
2018-07-02T05:21:48.480Z,24.00
2018-07-02T05:23:52.316Z,24.60
2018-07-02T05:25:55.475Z,25.10
2018-07-02T05:27:58.577Z,25.50
2018-07-02T05:30:01.669Z,25.80
2018-07-02T05:32:04.756Z,26.00
2018-07-02T05:34:07.847Z,26.30
2018-07-02T05:36:10.948Z,26.80
2018-07-02T05:38:14.614Z,27.20
2018-07-02T05:40:17.753Z,27.70
2018-07-02T05:42:20.857Z,28.00
2018-07-02T05:44:23.959Z,28.40
2018-07-02T05:46:27.141Z,28.60
2018-07-02T05:48:30.245Z,28.90
2018-07-02T05:50:33.328Z,29.20
2018-07-02T05:52:36.417Z,29.40
2018-07-02T05:54:39.589Z,29.40
2018-07-02T05:56:42.691Z,29.50
2018-07-02T05:58:45.788Z,30.00
2018-07-02T06:00:49.273Z,30.40
2018-07-02T06:02:52.307Z,30.70
2018-07-02T06:04:55.384Z,31.00
2018-07-02T06:06:58.460Z,31.20
2018-07-02T06:09:01.551Z,31.40
2018-07-02T06:11:04.648Z,31.50
2018-07-02T06:13:07.757Z,31.50
2018-07-02T06:15:10.840Z,31.50
2018-07-02T06:17:13.928Z,31.40
2018-07-02T06:19:17.233Z,31.50
2018-07-02T06:21:20.344Z,31.80
2018-07-02T06:23:23.430Z,32.00
2018-07-02T06:25:26.505Z,32.30
2018-07-02T06:27:29.589Z,32.50
2018-07-02T06:29:32.748Z,32.80
2018-07-02T06:31:35.847Z,33.00
2018-07-02T06:33:38.956Z,33.30
2018-07-02T06:35:42.089Z,33.50
2018-07-02T06:37:45.199Z,33.40
2018-07-02T06:39:48.292Z,33.60
2018-07-02T06:41:51.484Z,33.70
2018-07-02T06:43:54.770Z,33.70
2018-07-02T06:45:57.859Z,33.20
2018-07-02T06:48:01.002Z,33.40
2018-07-02T06:50:04.317Z,33.60
2018-07-02T06:52:07.428Z,33.60
2018-07-02T06:54:10.532Z,33.60
2018-07-02T06:56:13.640Z,33.50
2018-07-02T06:58:16.736Z,33.40
2018-07-02T07:00:20.725Z,33.30
2018-07-02T07:04:26.776Z,33.00
2018-07-02T07:06:29.893Z,32.20
2018-07-02T07:08:33.022Z,31.40
2018-07-02T07:10:36.120Z,30.60
2018-07-02T07:12:39.233Z,29.80
2018-07-02T07:14:42.325Z,29.10
2018-07-02T07:16:45.428Z,28.40
2018-07-02T07:18:48.531Z,27.80
2018-07-02T07:20:51.616Z,27.30
2018-07-02T07:22:54.756Z,26.90
2018-07-02T07:27:01.332Z,26.40
2018-07-02T07:31:07.331Z,25.90
2018-07-02T07:33:10.436Z,25.60
2018-07-02T07:35:13.528Z,25.50
2018-07-02T07:37:16.680Z,25.30
2018-07-02T07:39:19.740Z,25.30
2018-07-02T07:41:22.845Z,25.10
2018-07-02T07:43:25.957Z,25.00
2018-07-02T07:45:29.042Z,25.00
2018-07-02T07:47:32.156Z,25.20
2018-07-02T07:49:35.257Z,25.40
2018-07-02T07:53:41.312Z,25.30
2018-07-02T07:55:44.432Z,25.10
2018-07-02T07:57:47.526Z,24.90
2018-07-02T07:59:50.931Z,24.80
2018-07-02T08:01:54.472Z,24.90
2018-07-02T08:03:57.628Z,25.00
2018-07-02T08:06:01.559Z,25.10
2018-07-02T08:08:04.648Z,25.10
2018-07-02T08:10:07.775Z,25.10
2018-07-02T08:12:10.875Z,25.10
2018-07-02T08:14:14.014Z,25.20
2018-07-02T08:18:19.971Z,25.10
2018-07-02T08:20:23.079Z,25.10
2018-07-02T08:22:26.176Z,25.10
2018-07-02T08:24:29.293Z,25.20
2018-07-02T08:26:32.400Z,25.20
2018-07-02T08:28:35.543Z,25.10
2018-07-02T08:30:38.711Z,24.70
2018-07-02T08:32:41.824Z,24.60
2018-07-02T08:34:44.948Z,24.60
2018-07-02T08:36:48.072Z,24.70
2018-07-02T08:38:51.171Z,24.70
2018-07-02T08:40:55.187Z,24.70
2018-07-02T08:42:58.285Z,24.80
2018-07-02T08:45:01.412Z,24.80
2018-07-02T08:51:10.308Z,25.00
2018-07-02T08:53:13.505Z,24.90
2018-07-02T08:55:16.640Z,25.00
2018-07-02T08:57:19.800Z,25.00
2018-07-02T08:59:22.903Z,25.10
2018-07-02T09:01:26.017Z,25.10
2018-07-02T09:03:29.121Z,25.10
2018-07-02T09:05:32.234Z,25.10
2018-07-02T09:07:35.331Z,25.00
2018-07-02T09:09:38.461Z,24.80
2018-07-02T09:11:41.592Z,24.60
2018-07-02T09:13:44.682Z,24.60
2018-07-02T09:15:47.793Z,24.70
2018-07-02T09:17:50.880Z,24.90
2018-07-02T09:19:53.985Z,25.10
2018-07-02T09:21:57.113Z,25.30
2018-07-02T09:24:00.193Z,25.30
2018-07-02T09:26:03.584Z,25.30
2018-07-02T09:28:06.867Z,25.40
2018-07-02T09:30:09.960Z,25.30
2018-07-02T09:32:13.061Z,25.30
2018-07-02T09:34:16.151Z,25.30
2018-07-02T09:36:19.260Z,25.30
2018-07-02T09:38:22.348Z,25.40
2018-07-02T09:40:25.440Z,25.20
2018-07-02T09:42:28.568Z,24.90
2018-07-02T09:44:31.677Z,24.60
2018-07-02T09:46:34.937Z,24.60
2018-07-02T09:48:38.036Z,24.80
2018-07-02T09:50:41.133Z,24.80
2018-07-02T09:52:44.224Z,24.70
2018-07-02T09:54:47.344Z,24.70
2018-07-02T09:56:50.455Z,24.60
2018-07-02T09:58:53.571Z,24.70
2018-07-02T10:00:56.658Z,24.90
2018-07-02T10:02:59.761Z,25.00
2018-07-02T10:05:03.018Z,24.90
2018-07-02T10:07:05.956Z,24.70
2018-07-02T10:09:11.109Z,24.80
2018-07-02T10:11:14.501Z,24.90
2018-07-02T10:13:17.784Z,25.00
2018-07-02T10:15:21.839Z,25.10
2018-07-02T10:17:24.944Z,25.20
2018-07-02T10:19:28.033Z,25.30
2018-07-02T10:21:31.144Z,25.50
2018-07-02T10:23:37.335Z,25.40
2018-07-02T10:25:37.537Z,25.30
2018-07-02T10:27:40.655Z,25.30
2018-07-02T10:29:43.728Z,25.50
2018-07-02T10:31:47.493Z,25.50
2018-07-02T10:33:50.615Z,25.60
2018-07-02T10:35:53.691Z,25.70
2018-07-02T10:37:56.775Z,25.80
2018-07-02T10:40:00.225Z,25.90
2018-07-02T10:42:03.247Z,26.00
2018-07-02T10:44:06.344Z,26.00
2018-07-02T10:46:09.420Z,26.10
2018-07-02T10:48:12.497Z,26.20
2018-07-02T10:50:15.651Z,26.10
2018-07-02T10:52:18.688Z,26.00
2018-07-02T10:54:21.788Z,25.80
2018-07-02T10:56:24.884Z,25.60
2018-07-02T10:58:28.021Z,25.50
2018-07-02T11:00:31.413Z,25.60
2018-07-02T11:02:34.532Z,25.70
2018-07-02T11:06:40.500Z,25.90
2018-07-02T11:08:43.633Z,25.90
2018-07-02T11:10:46.736Z,26.00
2018-07-02T11:12:49.860Z,26.20
2018-07-02T11:14:52.960Z,26.20
2018-07-02T11:16:56.045Z,26.20
2018-07-02T11:18:59.140Z,26.20
2018-07-02T11:21:02.312Z,26.20
2018-07-02T11:23:05.401Z,26.30
2018-07-02T11:25:08.616Z,26.40
2018-07-02T11:27:11.704Z,26.50
2018-07-02T11:29:14.795Z,26.10
2018-07-02T11:31:17.891Z,25.90
2018-07-02T11:33:20.992Z,25.80
2018-07-02T11:35:24.093Z,25.90
2018-07-02T11:39:30.131Z,26.00
2018-07-02T11:41:33.275Z,26.20
2018-07-02T11:43:36.472Z,26.00
2018-07-02T11:45:39.555Z,25.80
2018-07-02T11:47:42.648Z,25.90
2018-07-02T11:49:45.816Z,25.80
2018-07-02T11:51:48.890Z,25.80
2018-07-02T11:53:52.013Z,25.90
2018-07-02T11:55:55.101Z,26.10
2018-07-02T11:57:58.592Z,26.20
2018-07-02T12:00:01.690Z,26.10
2018-07-02T12:02:04.764Z,26.00
2018-07-02T12:04:08.838Z,26.00
2018-07-02T12:06:12.544Z,25.90
2018-07-02T12:08:15.642Z,26.00
2018-07-02T12:10:18.737Z,26.20
2018-07-02T12:12:22.320Z,26.20
2018-07-02T12:14:25.403Z,26.50
2018-07-02T12:16:28.503Z,26.50
2018-07-02T12:18:31.571Z,26.50
2018-07-02T12:20:34.653Z,26.50
2018-07-02T12:22:37.729Z,26.50
2018-07-02T12:24:40.848Z,26.30
2018-07-02T12:26:43.932Z,26.20
2018-07-02T12:28:47.020Z,26.20
2018-07-02T12:30:50.659Z,26.10
2018-07-02T12:32:53.914Z,26.10
2018-07-02T12:34:57.005Z,26.30
2018-07-02T12:37:00.092Z,26.40
2018-07-02T12:39:03.265Z,26.50
2018-07-02T12:41:06.719Z,26.40
2018-07-02T12:43:09.751Z,26.50
2018-07-02T12:45:12.868Z,26.50
2018-07-02T12:47:15.956Z,26.50
2018-07-02T12:49:19.052Z,26.50
2018-07-02T12:51:22.212Z,26.50
2018-07-02T12:53:25.307Z,26.50
2018-07-02T12:55:28.451Z,26.70
2018-07-02T12:57:31.550Z,26.70
2018-07-02T12:59:34.655Z,26.70
2018-07-02T13:01:37.757Z,26.80
2018-07-02T13:03:41.540Z,26.80
2018-07-02T13:05:44.668Z,26.80
2018-07-02T13:09:50.725Z,27.00
2018-07-02T13:11:53.827Z,26.90
2018-07-02T13:13:56.919Z,26.80
2018-07-02T13:16:00.020Z,26.80
2018-07-02T13:18:03.116Z,26.80
2018-07-02T13:20:06.419Z,26.80
2018-07-02T13:22:09.517Z,26.70
2018-07-02T13:24:12.625Z,26.70
2018-07-02T13:26:15.720Z,26.80
2018-07-02T13:28:20.004Z,26.80
2018-07-02T13:30:23.255Z,26.80
2018-07-02T13:32:26.180Z,26.90
2018-07-02T13:34:29.276Z,27.10
2018-07-02T13:36:32.643Z,27.20
2018-07-02T13:38:35.555Z,27.20
2018-07-02T13:40:38.653Z,27.20
2018-07-02T13:42:41.755Z,27.20
2018-07-02T13:44:44.936Z,27.20
2018-07-02T13:46:48.041Z,27.30
2018-07-02T13:48:51.137Z,27.00
2018-07-02T13:50:54.240Z,26.70
2018-07-02T13:52:57.349Z,26.80
2018-07-02T13:55:00.459Z,26.80
2018-07-02T13:57:03.569Z,26.90
2018-07-02T13:59:06.683Z,26.80
2018-07-02T14:01:10.508Z,26.80
2018-07-02T14:03:13.604Z,26.80
2018-07-02T14:05:16.729Z,26.80
2018-07-02T14:07:19.833Z,26.80
2018-07-02T14:11:26.135Z,27.10
2018-07-02T14:13:29.236Z,27.00
2018-07-02T14:15:32.914Z,27.10
2018-07-02T14:17:35.995Z,27.20
2018-07-02T14:19:39.080Z,27.20
2018-07-02T14:21:42.147Z,27.40
2018-07-02T14:23:45.236Z,27.30
2018-07-02T14:25:48.308Z,27.30
2018-07-02T14:29:54.337Z,27.00
2018-07-02T14:31:57.417Z,27.10
2018-07-02T14:34:00.501Z,27.10
2018-07-02T14:36:03.577Z,27.30
2018-07-02T14:38:06.668Z,27.40
2018-07-02T14:40:09.908Z,27.30
2018-07-02T14:42:12.991Z,27.20
2018-07-02T14:46:18.999Z,27.40
2018-07-02T14:48:22.103Z,27.50
2018-07-02T14:50:25.205Z,27.60
2018-07-02T14:52:28.563Z,27.50
2018-07-02T14:54:31.653Z,27.60
2018-07-02T14:56:34.752Z,27.60
2018-07-02T14:58:37.959Z,27.70
2018-07-02T15:00:41.073Z,27.50
2018-07-02T15:02:44.172Z,27.40
2018-07-02T15:04:47.372Z,27.30
2018-07-02T15:06:50.459Z,27.30
2018-07-02T15:08:53.700Z,27.40
2018-07-02T15:12:59.699Z,27.40
2018-07-02T15:15:02.792Z,27.10
2018-07-02T15:17:05.876Z,26.90
2018-07-02T15:19:08.972Z,26.90
2018-07-02T15:21:12.268Z,26.90
2018-07-02T15:23:15.565Z,26.90
2018-07-02T15:25:18.648Z,26.90
2018-07-02T15:27:21.734Z,27.00
2018-07-02T15:29:24.841Z,27.20
2018-07-02T15:31:27.928Z,27.10
2018-07-02T15:33:31.036Z,27.20
2018-07-02T15:37:37.141Z,26.90
2018-07-02T15:39:40.229Z,27.00
2018-07-02T15:41:43.381Z,27.00
2018-07-02T15:43:46.387Z,26.90
2018-07-02T15:45:49.479Z,26.90
2018-07-02T15:47:52.568Z,26.90
2018-07-02T15:49:55.669Z,26.90
2018-07-02T15:51:58.752Z,26.90
2018-07-02T15:54:02.041Z,26.80
2018-07-02T15:56:05.137Z,26.90
2018-07-02T15:58:08.244Z,26.90
2018-07-02T16:02:14.321Z,27.00
2018-07-02T16:04:17.432Z,26.90
2018-07-02T16:06:20.540Z,26.80
2018-07-02T16:08:23.631Z,26.90
2018-07-02T16:10:27.779Z,26.90
2018-07-02T16:12:30.952Z,26.90
2018-07-02T16:14:34.040Z,26.90
2018-07-02T16:16:37.162Z,26.90
2018-07-02T16:18:40.286Z,26.90
2018-07-02T16:20:43.360Z,26.90
2018-07-02T16:22:46.621Z,26.80
2018-07-02T16:24:49.677Z,26.90
2018-07-02T16:28:55.788Z,26.70
2018-07-02T16:30:58.894Z,26.60
2018-07-02T16:33:01.987Z,26.50
2018-07-02T16:35:05.120Z,26.50
2018-07-02T16:37:08.256Z,26.70
2018-07-02T16:39:11.535Z,26.70
2018-07-02T16:41:15.004Z,26.70
2018-07-02T16:43:18.085Z,26.80
2018-07-02T16:45:21.200Z,26.70
2018-07-02T16:47:24.337Z,26.50
2018-07-02T16:49:27.427Z,26.20
2018-07-02T16:51:30.555Z,26.10
2018-07-02T16:53:33.724Z,26.20
2018-07-02T16:55:37.007Z,26.30
2018-07-02T16:57:40.191Z,26.40
2018-07-02T16:59:43.264Z,26.50
2018-07-02T17:01:46.359Z,26.60
2018-07-02T17:03:49.598Z,26.50
2018-07-02T17:05:52.690Z,26.20
2018-07-02T17:07:57.365Z,26.10
2018-07-02T17:10:00.438Z,26.10
2018-07-02T17:12:03.526Z,26.10
2018-07-02T17:14:06.735Z,26.10
2018-07-02T17:16:09.835Z,26.10
2018-07-02T17:18:12.959Z,26.20
2018-07-02T17:24:22.828Z,26.30
2018-07-02T17:26:26.272Z,26.30
2018-07-02T17:28:29.428Z,26.10
2018-07-02T17:30:32.475Z,26.00
2018-07-02T17:32:35.599Z,25.90
2018-07-02T17:34:38.711Z,25.90
2018-07-02T17:36:41.916Z,26.00
2018-07-02T17:38:45.004Z,26.00
2018-07-02T17:40:48.077Z,26.10
2018-07-02T17:42:51.168Z,26.10
2018-07-02T17:44:54.251Z,26.00
2018-07-02T17:46:57.395Z,26.00
2018-07-02T17:49:00.480Z,26.20
2018-07-02T17:51:03.612Z,26.50
2018-07-02T17:53:06.707Z,27.80
2018-07-02T17:55:09.836Z,29.00
2018-07-02T17:57:13.064Z,31.70
2018-07-02T17:59:16.147Z,31.80
2018-07-02T18:01:19.247Z,33.20
2018-07-02T18:03:22.376Z,34.50
2018-07-02T18:05:25.520Z,35.70
2018-07-02T18:09:31.604Z,37.90
2018-07-02T18:11:34.704Z,37.90
2018-07-02T18:15:40.720Z,37.90
2018-07-02T18:23:52.713Z,39.50
2018-07-02T18:27:58.747Z,39.90
2018-07-02T18:30:01.837Z,40.00
2018-07-02T18:34:08.034Z,40.10
2018-07-02T18:36:11.133Z,40.30
2018-07-02T18:38:14.236Z,40.60
2018-07-02T18:40:17.355Z,40.70
2018-07-02T18:42:20.440Z,40.60
2018-07-02T18:44:23.556Z,40.50
2018-07-02T18:46:26.700Z,39.80
2018-07-02T18:48:29.959Z,38.70
2018-07-02T18:50:33.058Z,36.50
2018-07-02T18:52:36.516Z,34.20
2018-07-02T18:54:39.756Z,32.40
2018-07-02T18:56:42.909Z,30.70
2018-07-02T18:58:46.057Z,29.30
2018-07-02T19:00:49.196Z,28.30
2018-07-02T19:02:52.360Z,27.60
2018-07-02T19:04:55.532Z,27.20
2018-07-02T19:06:58.799Z,26.70
2018-07-02T19:09:01.894Z,26.40
2018-07-02T19:11:04.996Z,26.00
2018-07-02T19:13:08.183Z,25.60
2018-07-02T19:15:11.404Z,25.40
2018-07-02T19:17:14.524Z,25.20
2018-07-02T19:19:17.663Z,24.90
2018-07-02T19:21:20.796Z,24.70
2018-07-02T19:23:23.984Z,24.70
2018-07-02T19:25:27.167Z,24.60
2018-07-02T19:27:30.315Z,24.50
2018-07-02T19:29:33.534Z,24.40
2018-07-02T19:31:36.762Z,24.30
2018-07-02T19:33:39.886Z,24.20
2018-07-02T19:35:42.972Z,24.10
2018-07-02T19:37:46.259Z,24.00
2018-07-02T19:39:49.496Z,23.80
2018-07-02T19:41:52.907Z,23.70
2018-07-02T19:43:56.108Z,23.60
2018-07-02T19:45:59.378Z,23.50
2018-07-02T19:48:02.521Z,23.40
2018-07-02T19:50:05.732Z,23.30
2018-07-02T19:52:08.829Z,23.20
2018-07-02T19:54:12.011Z,23.10
2018-07-02T19:56:15.329Z,23.00
2018-07-02T19:58:18.469Z,22.90
2018-07-02T20:00:21.627Z,22.80
2018-07-02T20:02:24.724Z,22.70
2018-07-02T20:04:28.000Z,22.60
2018-07-02T20:06:31.303Z,22.40
2018-07-02T20:08:34.413Z,22.30
2018-07-02T20:10:37.676Z,22.20
2018-07-02T20:12:40.883Z,22.20
2018-07-02T20:14:43.967Z,22.10
2018-07-02T20:16:47.527Z,22.00
2018-07-02T20:18:50.818Z,21.90
2018-07-02T20:20:54.070Z,21.80
2018-07-02T20:22:57.187Z,21.70
2018-07-02T20:25:00.295Z,21.60
2018-07-02T20:27:03.417Z,21.50
2018-07-02T20:29:07.432Z,21.40
2018-07-02T20:31:10.544Z,21.40
2018-07-02T20:33:13.640Z,21.30
2018-07-02T20:35:17.004Z,21.20
2018-07-02T20:37:20.109Z,21.10
2018-07-02T20:39:23.464Z,21.00
2018-07-02T20:41:26.540Z,21.00
2018-07-02T20:43:29.668Z,20.90
2018-07-02T20:45:32.815Z,20.80
2018-07-02T20:47:35.940Z,20.70
2018-07-02T20:49:39.081Z,20.60
2018-07-02T20:51:42.128Z,20.50
2018-07-02T20:53:45.234Z,20.40
2018-07-02T20:55:48.337Z,20.40
2018-07-02T20:57:51.410Z,20.30
2018-07-02T20:59:54.511Z,20.20
2018-07-02T21:01:57.684Z,20.20
2018-07-02T21:04:00.979Z,20.10
2018-07-02T21:06:04.067Z,20.10
2018-07-02T21:08:07.211Z,20.00
2018-07-02T21:10:10.413Z,20.00
2018-07-02T21:12:13.446Z,19.90
2018-07-02T21:14:16.534Z,19.80
2018-07-02T21:16:19.624Z,19.70
2018-07-02T21:18:22.796Z,19.60
2018-07-02T21:20:25.887Z,19.50
2018-07-02T21:22:28.984Z,19.40
2018-07-02T21:24:32.156Z,19.50
2018-07-02T21:26:35.548Z,19.50
2018-07-02T21:28:38.611Z,19.40
2018-07-02T21:30:41.984Z,19.40
2018-07-02T21:32:45.213Z,19.40
2018-07-02T21:34:48.473Z,19.30
2018-07-02T21:36:51.558Z,19.30
2018-07-02T21:38:54.709Z,19.30
2018-07-02T21:40:57.754Z,19.20
2018-07-02T21:43:00.872Z,19.20
2018-07-02T21:45:04.217Z,19.20
2018-07-02T21:47:07.311Z,19.20
2018-07-02T21:49:10.384Z,19.20
2018-07-02T21:51:13.477Z,19.20
2018-07-02T21:53:16.551Z,19.20
2018-07-02T21:55:19.668Z,19.10
2018-07-02T21:57:22.778Z,19.00
2018-07-02T21:59:25.880Z,19.00
2018-07-02T22:01:29.023Z,18.90
2018-07-02T22:03:32.143Z,18.90
2018-07-02T22:05:35.278Z,18.80
2018-07-02T22:07:38.905Z,18.80
2018-07-02T22:09:41.991Z,18.70
2018-07-02T22:11:45.081Z,18.60
2018-07-02T22:13:48.184Z,18.60
2018-07-02T22:15:51.284Z,18.60
2018-07-02T22:17:54.388Z,18.50
2018-07-02T22:19:57.495Z,18.50
2018-07-02T22:22:00.588Z,18.50
2018-07-02T22:24:03.695Z,18.50
2018-07-02T22:26:06.898Z,18.50
2018-07-02T22:28:09.995Z,18.50
2018-07-02T22:32:15.974Z,18.40
2018-07-02T22:34:19.076Z,18.40
2018-07-02T22:36:22.172Z,18.40
2018-07-02T22:38:25.295Z,18.30
2018-07-02T22:40:28.409Z,18.30
2018-07-02T22:42:31.500Z,18.30
2018-07-02T22:44:34.628Z,18.30
2018-07-02T22:46:37.771Z,18.20
2018-07-02T22:48:40.875Z,18.10
2018-07-02T22:50:43.976Z,18.10
2018-07-02T22:52:47.071Z,18.00
2018-07-02T22:54:50.177Z,18.00
2018-07-02T22:56:53.259Z,17.90
2018-07-02T22:58:56.348Z,17.90
2018-07-02T23:01:00.237Z,17.90
2018-07-02T23:03:03.327Z,17.80
2018-07-02T23:05:06.464Z,17.80
2018-07-02T23:07:09.558Z,17.80
2018-07-02T23:09:12.646Z,17.80
2018-07-02T23:11:15.775Z,17.70
2018-07-02T23:13:18.882Z,17.70
2018-07-02T23:15:22.000Z,17.70
2018-07-02T23:17:25.084Z,17.70
2018-07-02T23:19:28.168Z,17.70
2018-07-02T23:21:31.272Z,17.60
2018-07-02T23:23:34.371Z,17.60
2018-07-02T23:25:37.484Z,17.50
2018-07-02T23:27:40.602Z,17.50
2018-07-02T23:31:46.622Z,17.40
2018-07-02T23:33:49.743Z,17.40
2018-07-02T23:35:52.846Z,17.40
2018-07-02T23:37:55.956Z,17.40
2018-07-02T23:39:59.136Z,17.30
2018-07-02T23:42:02.229Z,17.30
2018-07-02T23:44:05.474Z,17.30
2018-07-02T23:46:08.577Z,17.30
2018-07-02T23:48:11.680Z,17.30
2018-07-02T23:50:14.780Z,17.30
2018-07-02T23:52:17.867Z,17.20
2018-07-02T23:54:20.972Z,17.20
2018-07-02T23:56:24.088Z,17.20
2018-07-02T23:58:27.189Z,17.20
